Time;durP1;ratioP1;P1;durP2;ratioP2;P2;SDS_P1;SDS_P2;PMS_P1;PMS_P2;Temp;Humidity;BMP_temperature;BMP_pressure;BME280_temperature;BME280_humidity;BME280_pressure;Samples;Min_cycle;Max_cycle;Signal;HPM_P1;HPM_P2
2022/01/26 00:06:58;;;;;;;41.27;23.13;;;;;;;;;;5012819;28;20207;-84
2022/01/26 00:09:26;;;;;;;43.20;23.00;;;;;;;;;;5012113;28;20221;-84
2022/01/26 00:11:55;;;;;;;32.03;15.47;;;;;;;;;;5010680;28;20193;-84
2022/01/26 00:14:22;;;;;;;37.03;18.13;;;;;;;;;;5012365;28;20724;-84
2022/01/26 00:16:49;;;;;;;36.57;20.37;;;;;;;;;;5012325;28;20668;-84
2022/01/26 00:19:21;;;;;;;35.33;16.07;;;;;;;;;;5011398;28;20197;-84
2022/01/26 00:21:51;;;;;;;49.23;29.77;;;;;;;;;;5011629;28;20205;-84
2022/01/26 00:24:37;;;;;;;32.43;17.13;;;;;;;;;;5011825;28;20213;-84
2022/01/26 00:27:22;;;;;;;32.30;15.13;;;;;;;;;;5010618;28;20225;-84
2022/01/26 00:30:00;;;;;;;34.10;16.43;;;;;;;;;;5012406;28;20300;-84
2022/01/26 00:40:51;;;;;;;35.13;15.77;;;;;;;;;;5010969;28;20209;-84
2022/01/26 00:43:23;;;;;;;32.40;16.13;;;;;;;;;;5010787;28;20217;-84
2022/01/26 00:45:55;;;;;;;31.57;14.47;;;;;;;;;;5011696;28;20186;-84
2022/01/26 00:48:23;;;;;;;30.07;14.37;;;;;;;;;;5010518;28;20679;-84
2022/01/26 00:50:53;;;;;;;33.07;15.43;;;;;;;;;;5011776;28;20229;-84
2022/01/26 00:53:22;;;;;;;33.17;14.90;;;;;;;;;;5011529;28;20291;-84
2022/01/26 00:55:50;;;;;;;30.30;14.50;;;;;;;;;;5010822;28;20245;-84
2022/01/26 00:58:17;;;;;;;33.77;14.27;;;;;;;;;;5011397;28;20252;-84
2022/01/26 01:00:44;;;;;;;30.73;14.07;;;;;;;;;;5011156;28;20287;-84
2022/01/26 01:03:12;;;;;;;28.60;14.40;;;;;;;;;;5011352;28;20287;-84
2022/01/26 01:05:45;;;;;;;33.30;14.47;;;;;;;;;;5009410;28;20609;-84
2022/01/26 01:08:17;;;;;;;32.83;14.87;;;;;;;;;;4992197;28;20585;-85
2022/01/26 01:10:45;;;;;;;34.23;14.47;;;;;;;;;;5008422;28;20200;-84
2022/01/26 01:13:16;;;;;;;32.70;14.80;;;;;;;;;;5010310;28;20209;-85
2022/01/26 01:15:43;;;;;;;42.27;20.93;;;;;;;;;;5011224;28;20235;-85
2022/01/26 01:18:17;;;;;;;31.97;15.50;;;;;;;;;;5011712;28;20236;-85
2022/01/26 01:21:26;;;;;;;35.93;15.90;;;;;;;;;;5010984;28;20201;-85
2022/01/26 01:26:59;;;;;;;34.13;15.47;;;;;;;;;;4969173;28;20221;-84
2022/01/26 01:29:29;;;;;;;31.13;14.87;;;;;;;;;;4966450;28;20205;-84
2022/01/26 01:32:00;;;;;;;32.90;15.70;;;;;;;;;;4969950;28;20220;-84
2022/01/26 01:34:36;;;;;;;27.80;13.93;;;;;;;;;;4969819;28;20231;-84
2022/01/26 01:37:06;;;;;;;27.10;14.17;;;;;;;;;;4971881;28;20216;-84
2022/01/26 01:39:35;;;;;;;27.47;13.53;;;;;;;;;;4973895;28;20200;-84
2022/01/26 01:42:03;;;;;;;25.87;13.17;;;;;;;;;;4973925;28;20690;-84
2022/01/26 01:44:30;;;;;;;27.30;13.03;;;;;;;;;;4973758;28;20265;-84
2022/01/26 01:46:58;;;;;;;25.87;12.70;;;;;;;;;;4973691;28;20248;-84
2022/01/26 01:49:25;;;;;;;26.27;13.47;;;;;;;;;;4972896;28;20234;-84
2022/01/26 01:51:57;;;;;;;27.90;13.23;;;;;;;;;;4973452;28;20199;-84
2022/01/26 01:54:24;;;;;;;27.90;13.77;;;;;;;;;;4957266;28;20233;-85
2022/01/26 01:56:55;;;;;;;26.20;13.23;;;;;;;;;;4973844;28;20286;-84
2022/01/26 01:59:23;;;;;;;28.13;13.80;;;;;;;;;;4973834;28;20212;-83
2022/01/26 02:01:50;;;;;;;24.80;12.50;;;;;;;;;;4973568;28;20244;-84
2022/01/26 02:04:17;;;;;;;27.07;13.53;;;;;;;;;;5003476;28;20277;-84
2022/01/26 02:06:44;;;;;;;27.03;13.10;;;;;;;;;;5014921;28;20663;-85
2022/01/26 02:09:12;;;;;;;27.23;13.13;;;;;;;;;;5014549;28;20198;-84
2022/01/26 02:11:45;;;;;;;27.03;13.33;;;;;;;;;;5014068;28;20201;-84
2022/01/26 02:14:20;;;;;;;25.07;12.33;;;;;;;;;;5012692;28;20208;-84
2022/01/26 02:16:53;;;;;;;24.97;12.77;;;;;;;;;;5014265;28;20194;-84
2022/01/26 02:19:49;;;;;;;28.43;13.03;;;;;;;;;;5014505;28;20204;-84
2022/01/26 02:50:12;;;;;;;25.53;13.17;;;;;;;;;;4969262;28;20252;-84
2022/01/26 02:55:39;;;;;;;26.87;13.43;;;;;;;;;;5150098;27;21382;-84
2022/01/26 03:01:19;;;;;;;26.80;13.83;;;;;;;;;;5129181;27;20200;-84
2022/01/26 03:03:54;;;;;;;25.60;13.13;;;;;;;;;;5129713;27;20200;-84
2022/01/26 03:06:29;;;;;;;28.43;13.97;;;;;;;;;;5124428;27;20214;-84
2022/01/26 03:09:01;;;;;;;29.23;14.87;;;;;;;;;;5149809;27;20196;-85
2022/01/26 03:11:33;;;;;;;29.23;15.10;;;;;;;;;;5144852;27;20611;-84
2022/01/26 03:14:08;;;;;;;33.00;16.47;;;;;;;;;;5131869;27;20222;-84
2022/01/26 03:16:41;;;;;;;31.33;16.27;;;;;;;;;;5130546;27;20550;-84
2022/01/26 03:19:19;;;;;;;32.97;15.83;;;;;;;;;;5128290;28;20215;-84
2022/01/26 03:21:55;;;;;;;29.20;15.13;;;;;;;;;;5129208;28;20874;-84
2022/01/26 03:30:00;;;;;;;27.67;14.30;;;;;;;;;;5129244;27;20249;-85
2022/01/26 03:32:52;;;;;;;27.90;13.60;;;;;;;;;;5129686;27;20199;-84
2022/01/26 03:35:30;;;;;;;26.23;13.03;;;;;;;;;;5129286;28;20220;-84
2022/01/26 03:37:59;;;;;;;26.43;12.80;;;;;;;;;;5134668;27;20206;-84
2022/01/26 03:40:31;;;;;;;24.77;12.87;;;;;;;;;;5146265;27;20291;-84
2022/01/26 03:43:00;;;;;;;27.10;12.07;;;;;;;;;;5124650;27;20657;-84
2022/01/26 03:45:27;;;;;;;28.37;12.43;;;;;;;;;;5110636;28;20254;-84
2022/01/26 03:47:55;;;;;;;26.57;12.40;;;;;;;;;;5114637;28;20219;-84
2022/01/26 03:50:22;;;;;;;26.73;13.27;;;;;;;;;;5108791;28;20289;-84
2022/01/26 03:52:49;;;;;;;28.70;13.53;;;;;;;;;;5108818;28;20225;-84
2022/01/26 03:55:17;;;;;;;27.40;13.50;;;;;;;;;;5109480;28;20767;-84
2022/01/26 03:57:44;;;;;;;31.87;14.10;;;;;;;;;;5108132;28;20633;-85
2022/01/26 04:00:13;;;;;;;29.37;13.67;;;;;;;;;;5108499;28;20704;-84
2022/01/26 04:02:41;;;;;;;31.23;14.43;;;;;;;;;;5124773;28;20281;-84
2022/01/26 04:05:11;;;;;;;29.93;14.43;;;;;;;;;;5104575;28;20237;-84
2022/01/26 04:07:39;;;;;;;32.13;14.33;;;;;;;;;;5094778;28;20298;-84
2022/01/26 04:10:16;;;;;;;33.77;14.17;;;;;;;;;;5094837;28;20198;-84
2022/01/26 04:12:43;;;;;;;32.97;15.17;;;;;;;;;;5094498;28;20246;-84
2022/01/26 04:15:20;;;;;;;31.80;14.90;;;;;;;;;;5106800;28;20256;-84
2022/01/26 04:17:49;;;;;;;32.27;14.53;;;;;;;;;;5108061;28;20194;-84
2022/01/26 04:20:16;;;;;;;32.73;14.90;;;;;;;;;;5113998;28;20943;-84
2022/01/26 04:22:53;;;;;;;32.20;15.13;;;;;;;;;;5113409;28;20215;-84
2022/01/26 04:25:24;;;;;;;33.97;15.37;;;;;;;;;;5115394;28;20198;-84
2022/01/26 04:27:54;;;;;;;38.10;15.70;;;;;;;;;;5106695;28;20206;-84
2022/01/26 04:30:22;;;;;;;36.77;15.20;;;;;;;;;;5094070;28;20556;-84
2022/01/26 04:32:50;;;;;;;40.93;15.63;;;;;;;;;;5094202;28;20256;-84
2022/01/26 04:35:17;;;;;;;38.27;16.07;;;;;;;;;;5093966;28;20768;-84
2022/01/26 04:38:08;;;;;;;40.03;15.13;;;;;;;;;;5094224;28;20198;-84
2022/01/26 04:40:41;;;;;;;36.30;15.00;;;;;;;;;;5093927;28;20213;-84
2022/01/26 04:43:15;;;;;;;35.83;14.27;;;;;;;;;;5096430;28;20224;-85
2022/01/26 04:45:43;;;;;;;40.27;15.00;;;;;;;;;;5092290;28;20286;-84
2022/01/26 04:48:11;;;;;;;40.17;14.97;;;;;;;;;;5106487;28;20243;-85
2022/01/26 04:50:39;;;;;;;36.63;15.00;;;;;;;;;;5113970;28;20680;-84
2022/01/26 04:53:06;;;;;;;41.07;15.73;;;;;;;;;;5114136;28;20285;-84
2022/01/26 04:55:33;;;;;;;38.30;14.70;;;;;;;;;;5098549;28;20730;-84
2022/01/26 04:58:00;;;;;;;40.27;14.67;;;;;;;;;;5097328;28;20196;-84
2022/01/26 05:00:28;;;;;;;36.37;14.80;;;;;;;;;;5113310;28;20209;-84
2022/01/26 05:02:55;;;;;;;41.10;14.87;;;;;;;;;;5115896;28;20731;-84
2022/01/26 05:05:24;;;;;;;39.10;15.60;;;;;;;;;;5114791;28;20226;-84
2022/01/26 05:07:51;;;;;;;36.27;15.53;;;;;;;;;;5112740;28;20232;-85
2022/01/26 05:10:19;;;;;;;38.10;15.80;;;;;;;;;;5113550;28;20680;-84
2022/01/26 05:12:46;;;;;;;38.97;15.90;;;;;;;;;;5110919;28;20262;-84
2022/01/26 05:15:14;;;;;;;35.57;15.67;;;;;;;;;;5112615;28;20224;-83
2022/01/26 05:17:41;;;;;;;38.03;15.50;;;;;;;;;;5111312;28;20196;-84
2022/01/26 05:20:10;;;;;;;36.83;15.50;;;;;;;;;;5112368;28;20205;-84
2022/01/26 05:22:40;;;;;;;36.00;15.43;;;;;;;;;;5102088;28;20204;-85
2022/01/26 05:25:08;;;;;;;37.60;15.30;;;;;;;;;;5093109;28;20217;-84
2022/01/26 05:27:35;;;;;;;32.57;14.17;;;;;;;;;;5093119;28;20277;-84
2022/01/26 05:30:03;;;;;;;36.33;15.47;;;;;;;;;;5092955;28;20713;-85
2022/01/26 05:32:30;;;;;;;34.10;15.87;;;;;;;;;;5093022;28;20285;-84
2022/01/26 05:34:57;;;;;;;36.67;15.63;;;;;;;;;;5092636;28;20313;-85
2022/01/26 05:37:25;;;;;;;34.33;15.43;;;;;;;;;;5094136;28;20301;-85
2022/01/26 05:39:53;;;;;;;33.40;14.93;;;;;;;;;;5095230;28;20289;-85
2022/01/26 05:42:20;;;;;;;39.33;16.50;;;;;;;;;;5098531;28;20221;-85
2022/01/26 05:44:47;;;;;;;37.40;16.47;;;;;;;;;;5096651;28;20243;-85
2022/01/26 05:47:18;;;;;;;40.30;16.70;;;;;;;;;;5092404;28;20251;-84
2022/01/26 05:49:48;;;;;;;41.80;16.60;;;;;;;;;;5092202;28;20201;-85
2022/01/26 05:52:15;;;;;;;41.57;17.17;;;;;;;;;;5094306;28;20274;-84
2022/01/26 05:54:42;;;;;;;42.43;17.13;;;;;;;;;;5112402;28;20266;-84
2022/01/26 05:57:11;;;;;;;42.37;17.40;;;;;;;;;;5096067;28;20281;-84
2022/01/26 05:59:38;;;;;;;44.70;18.00;;;;;;;;;;5092728;28;20277;-84
2022/01/26 06:02:05;;;;;;;41.77;16.47;;;;;;;;;;5092130;28;20245;-84
2022/01/26 06:04:33;;;;;;;41.03;17.37;;;;;;;;;;5092284;28;20194;-84
2022/01/26 06:07:00;;;;;;;41.90;17.83;;;;;;;;;;5099180;28;20790;-84
2022/01/26 06:09:27;;;;;;;38.97;16.67;;;;;;;;;;5099295;28;20288;-84
2022/01/26 06:11:55;;;;;;;41.33;16.93;;;;;;;;;;5093603;28;20296;-85
2022/01/26 06:14:23;;;;;;;41.43;17.90;;;;;;;;;;5097342;28;20218;-84
2022/01/26 06:16:50;;;;;;;40.13;17.33;;;;;;;;;;5093547;28;20626;-86
2022/01/26 06:19:18;;;;;;;50.37;23.33;;;;;;;;;;5092409;28;20224;-84
2022/01/26 06:21:53;;;;;;;42.63;18.50;;;;;;;;;;5092667;28;20228;-84
2022/01/26 06:24:20;;;;;;;45.20;18.83;;;;;;;;;;5092090;28;20284;-84
2022/01/26 06:26:47;;;;;;;44.03;17.43;;;;;;;;;;5091822;28;20191;-84
2022/01/26 06:29:15;;;;;;;42.00;18.27;;;;;;;;;;5107079;28;20237;-84
2022/01/26 06:31:43;;;;;;;44.63;18.97;;;;;;;;;;5094631;28;20202;-83
2022/01/26 06:34:12;;;;;;;46.47;19.20;;;;;;;;;;5108657;28;20229;-84
2022/01/26 06:36:42;;;;;;;52.60;22.23;;;;;;;;;;5108051;28;20220;-84
2022/01/26 06:39:10;;;;;;;48.80;18.80;;;;;;;;;;5092494;28;20603;-85
2022/01/26 06:41:38;;;;;;;55.33;23.17;;;;;;;;;;5096086;28;20203;-84
2022/01/26 06:44:15;;;;;;;94.07;42.50;;;;;;;;;;5097765;28;20218;-83
2022/01/26 06:46:53;;;;;;;71.07;30.93;;;;;;;;;;5098649;28;20227;-83
2022/01/26 06:52:02;;;;;;;48.70;19.60;;;;;;;;;;5099320;28;20205;-85
2022/01/26 06:54:29;;;;;;;45.17;19.60;;;;;;;;;;5091497;28;20240;-83
2022/01/26 06:56:56;;;;;;;44.80;19.20;;;;;;;;;;5101334;28;20619;-86
2022/01/26 06:59:24;;;;;;;45.70;18.17;;;;;;;;;;5108548;28;20292;-84
2022/01/26 07:01:53;;;;;;;47.60;18.43;;;;;;;;;;5112223;28;20236;-84
2022/01/26 07:04:20;;;;;;;45.07;18.40;;;;;;;;;;5093569;28;21007;-83
2022/01/26 07:06:48;;;;;;;51.93;24.23;;;;;;;;;;5091484;28;20234;-84
2022/01/26 07:09:17;;;;;;;61.30;29.30;;;;;;;;;;5097879;28;20233;-83
2022/01/26 07:11:45;;;;;;;45.43;19.00;;;;;;;;;;5091976;28;20202;-83
2022/01/26 07:14:21;;;;;;;46.43;19.63;;;;;;;;;;5100429;28;20285;-83
2022/01/26 07:19:52;;;;;;;50.93;22.70;;;;;;;;;;5112043;28;20269;-83
2022/01/26 07:22:19;;;;;;;46.40;20.17;;;;;;;;;;5090869;28;20284;-83
2022/01/26 07:24:47;;;;;;;50.00;21.07;;;;;;;;;;5092133;28;20286;-83
2022/01/26 07:27:15;;;;;;;78.57;35.10;;;;;;;;;;5093014;28;20236;-84
2022/01/26 07:29:42;;;;;;;49.33;19.87;;;;;;;;;;5091726;28;20195;-84
2022/01/26 07:32:09;;;;;;;46.97;18.17;;;;;;;;;;5091460;28;20268;-84
2022/01/26 07:34:40;;;;;;;45.87;18.50;;;;;;;;;;5096454;28;20260;-84
2022/01/26 07:37:09;;;;;;;47.53;17.87;;;;;;;;;;5093047;28;20198;-82
2022/01/26 07:39:45;;;;;;;43.30;18.53;;;;;;;;;;5093345;28;20196;-82
2022/01/26 07:42:13;;;;;;;43.17;18.33;;;;;;;;;;5111079;28;20689;-82
2022/01/26 07:44:40;;;;;;;45.50;19.40;;;;;;;;;;5106132;28;20255;-82
2022/01/26 07:47:11;;;;;;;46.80;20.37;;;;;;;;;;5109670;28;20740;-82
2022/01/26 07:49:39;;;;;;;53.10;21.83;;;;;;;;;;5088902;28;20193;-81
2022/01/26 07:52:07;;;;;;;80.67;30.60;;;;;;;;;;5107526;28;20237;-84
2022/01/26 07:54:34;;;;;;;50.73;21.97;;;;;;;;;;5074273;28;20769;-82
2022/01/26 07:57:01;;;;;;;51.03;21.33;;;;;;;;;;5087205;28;20222;-83
2022/01/26 07:59:28;;;;;;;296.83;140.17;;;;;;;;;;5096910;28;20247;-84
2022/01/26 08:01:56;;;;;;;63.23;26.00;;;;;;;;;;5110577;28;20277;-84
2022/01/26 08:04:23;;;;;;;54.83;22.67;;;;;;;;;;5110730;28;20277;-83
2022/01/26 08:06:52;;;;;;;63.97;25.57;;;;;;;;;;5109062;28;20243;-84
2022/01/26 08:09:19;;;;;;;59.00;23.73;;;;;;;;;;5076489;28;20295;-84
2022/01/26 08:11:46;;;;;;;82.93;35.73;;;;;;;;;;5106318;28;20243;-83
2022/01/26 08:14:14;;;;;;;55.00;22.33;;;;;;;;;;5108121;28;20285;-83
2022/01/26 08:16:44;;;;;;;52.63;21.13;;;;;;;;;;5109681;28;20362;-82
2022/01/26 08:19:12;;;;;;;57.77;22.43;;;;;;;;;;5102073;28;20203;-83
2022/01/26 08:21:40;;;;;;;55.67;22.00;;;;;;;;;;5098160;28;20198;-83
2022/01/26 08:24:13;;;;;;;56.00;22.93;;;;;;;;;;5105751;28;20200;-83
2022/01/26 08:26:44;;;;;;;56.03;22.77;;;;;;;;;;5113806;28;20198;-83
2022/01/26 08:29:16;;;;;;;54.03;21.37;;;;;;;;;;5102385;28;20248;-85
2022/01/26 08:31:43;;;;;;;56.87;22.37;;;;;;;;;;5106009;28;20675;-83
2022/01/26 08:34:11;;;;;;;60.00;22.00;;;;;;;;;;5100903;28;20234;-83
2022/01/26 08:36:38;;;;;;;59.30;22.17;;;;;;;;;;5097643;28;20283;-82
2022/01/26 08:39:05;;;;;;;57.90;21.67;;;;;;;;;;5102392;28;20243;-82
2022/01/26 08:41:34;;;;;;;57.30;22.47;;;;;;;;;;5093867;28;20230;-83
2022/01/26 08:44:01;;;;;;;59.07;22.57;;;;;;;;;;5111488;28;20314;-83
2022/01/26 08:46:29;;;;;;;59.00;22.47;;;;;;;;;;5103838;28;20284;-83
2022/01/26 08:48:56;;;;;;;61.87;22.43;;;;;;;;;;5088028;28;20274;-82
2022/01/26 08:51:23;;;;;;;55.20;20.93;;;;;;;;;;5108459;28;20631;-84
2022/01/26 08:53:51;;;;;;;64.83;25.50;;;;;;;;;;5109856;28;20233;-84
2022/01/26 08:56:18;;;;;;;58.67;20.53;;;;;;;;;;5111532;28;20307;-84
2022/01/26 08:58:47;;;;;;;56.43;21.10;;;;;;;;;;5108864;28;20217;-83
2022/01/26 09:01:14;;;;;;;330.70;154.43;;;;;;;;;;5103043;28;20280;-83
2022/01/26 09:03:43;;;;;;;89.77;40.80;;;;;;;;;;5101811;28;20241;-83
2022/01/26 09:06:10;;;;;;;60.47;25.93;;;;;;;;;;5109411;28;20194;-83
2022/01/26 09:08:40;;;;;;;66.03;25.50;;;;;;;;;;5097118;28;20217;-83
2022/01/26 09:11:07;;;;;;;52.27;20.63;;;;;;;;;;5098449;28;20201;-84
2022/01/26 09:13:35;;;;;;;76.27;31.60;;;;;;;;;;5106919;28;20214;-84
2022/01/26 09:16:05;;;;;;;59.20;21.97;;;;;;;;;;5104237;28;20773;-83
2022/01/26 09:18:40;;;;;;;54.37;20.30;;;;;;;;;;5096132;28;20742;-84
2022/01/26 09:21:07;;;;;;;55.87;21.00;;;;;;;;;;5099435;28;20217;-83
2022/01/26 09:23:34;;;;;;;62.27;27.43;;;;;;;;;;5097190;28;20240;-84
2022/01/26 09:26:01;;;;;;;56.00;21.50;;;;;;;;;;5109162;28;20278;-84
2022/01/26 09:28:29;;;;;;;52.73;20.83;;;;;;;;;;5110753;28;20783;-83
2022/01/26 09:30:56;;;;;;;54.27;21.60;;;;;;;;;;5085744;28;20226;-84
2022/01/26 09:33:25;;;;;;;53.23;22.13;;;;;;;;;;5105359;28;20262;-84
2022/01/26 09:35:52;;;;;;;53.10;21.63;;;;;;;;;;5091984;28;20311;-84
2022/01/26 09:38:19;;;;;;;51.80;20.83;;;;;;;;;;5097116;28;20280;-84
2022/01/26 09:40:48;;;;;;;50.87;21.23;;;;;;;;;;5105028;28;20215;-84
2022/01/26 09:43:16;;;;;;;58.47;21.80;;;;;;;;;;5103831;28;20209;-84
2022/01/26 09:45:43;;;;;;;59.23;21.07;;;;;;;;;;5098175;28;20611;-84
2022/01/26 09:48:12;;;;;;;53.37;21.43;;;;;;;;;;5085357;28;20219;-83
2022/01/26 09:50:42;;;;;;;53.03;21.17;;;;;;;;;;5101742;28;20251;-84
2022/01/26 09:53:12;;;;;;;52.67;21.50;;;;;;;;;;5095889;28;20523;-85
2022/01/26 09:55:42;;;;;;;53.63;20.33;;;;;;;;;;5111223;28;20253;-85
2022/01/26 09:58:10;;;;;;;68.07;31.83;;;;;;;;;;5110798;28;20578;-85
2022/01/26 10:00:37;;;;;;;70.10;35.20;;;;;;;;;;5101721;28;20204;-83
2022/01/26 10:03:05;;;;;;;53.87;21.17;;;;;;;;;;5100479;28;20227;-85
2022/01/26 10:05:40;;;;;;;61.53;24.10;;;;;;;;;;5106863;28;20287;-85
2022/01/26 10:08:14;;;;;;;51.63;22.80;;;;;;;;;;5104428;28;20280;-84
2022/01/26 10:16:46;;;;;;;65.97;34.40;;;;;;;;;;5058234;28;20988;-85
2022/01/26 10:19:12;;;;;;;62.83;33.90;;;;;;;;;;5064464;28;20209;-85
2022/01/26 10:21:46;;;;;;;59.00;25.77;;;;;;;;;;5063012;28;20203;-86
2022/01/26 10:24:16;;;;;;;81.93;40.77;;;;;;;;;;5063564;28;20715;-82
2022/01/26 10:26:48;;;;;;;80.43;40.13;;;;;;;;;;5063664;28;20194;-82
2022/01/26 10:29:16;;;;;;;68.60;32.87;;;;;;;;;;5068203;28;20237;-82
2022/01/26 10:31:44;;;;;;;120.03;62.37;;;;;;;;;;5064576;28;20555;-85
2022/01/26 10:34:13;;;;;;;88.23;47.63;;;;;;;;;;5063157;28;20218;-85
2022/01/26 10:36:41;;;;;;;65.63;32.43;;;;;;;;;;5056670;28;20256;-83
2022/01/26 10:39:10;;;;;;;56.53;25.47;;;;;;;;;;5057847;28;20576;-85
2022/01/26 10:41:39;;;;;;;53.17;22.17;;;;;;;;;;5064239;28;20200;-84
2022/01/26 10:44:07;;;;;;;84.23;49.10;;;;;;;;;;5059420;28;20227;-84
2022/01/26 10:46:38;;;;;;;69.90;37.70;;;;;;;;;;5058199;28;20279;-83
2022/01/26 10:49:09;;;;;;;63.63;35.43;;;;;;;;;;5061003;28;20205;-84
2022/01/26 10:51:53;;;;;;;63.20;34.93;;;;;;;;;;5100098;28;20200;-84
2022/01/26 10:54:23;;;;;;;52.77;24.83;;;;;;;;;;5100747;28;20224;-84
2022/01/26 10:56:52;;;;;;;62.63;31.70;;;;;;;;;;5099847;28;20703;-84
2022/01/26 10:59:20;;;;;;;113.70;60.40;;;;;;;;;;5096116;28;20632;-84
2022/01/26 11:01:47;;;;;;;62.33;28.00;;;;;;;;;;5096388;28;20633;-84
2022/01/26 11:04:14;;;;;;;65.17;31.97;;;;;;;;;;5095698;28;20197;-84
2022/01/26 11:06:44;;;;;;;59.73;32.77;;;;;;;;;;5103068;28;20194;-84
2022/01/26 11:09:13;;;;;;;50.30;22.30;;;;;;;;;;5092996;28;20190;-86
2022/01/26 11:11:41;;;;;;;333.90;190.97;;;;;;;;;;5099939;28;20200;-84
2022/01/26 11:14:22;;;;;;;61.67;31.83;;;;;;;;;;5099730;28;20206;-85
2022/01/26 11:16:50;;;;;;;51.47;23.47;;;;;;;;;;5108014;28;20224;-85
2022/01/26 11:19:17;;;;;;;72.90;36.97;;;;;;;;;;5098283;28;20666;-85
2022/01/26 11:21:45;;;;;;;114.20;71.13;;;;;;;;;;5108367;28;20198;-85
2022/01/26 11:24:16;;;;;;;54.50;27.73;;;;;;;;;;5106539;28;20248;-85
2022/01/26 11:26:45;;;;;;;54.80;25.90;;;;;;;;;;5102839;28;20247;-85
2022/01/26 11:29:16;;;;;;;85.60;44.73;;;;;;;;;;5107343;28;20198;-81
2022/01/26 11:31:46;;;;;;;59.10;26.97;;;;;;;;;;5100471;28;20193;-83
2022/01/26 11:34:13;;;;;;;68.03;33.77;;;;;;;;;;5108984;28;20232;-82
2022/01/26 11:36:43;;;;;;;68.63;28.90;;;;;;;;;;5105160;28;20747;-81
2022/01/26 11:42:18;;;;;;;61.37;29.60;;;;;;;;;;5107768;28;20190;-79
2022/01/26 11:45:05;;;;;;;59.40;25.60;;;;;;;;;;5091891;28;20194;-79
2022/01/26 11:47:34;;;;;;;58.10;27.80;;;;;;;;;;5103566;28;20205;-80
2022/01/26 11:50:10;;;;;;;55.63;24.97;;;;;;;;;;5097574;28;20222;-80
2022/01/26 11:52:39;;;;;;;53.93;26.97;;;;;;;;;;5111153;28;20225;-80
2022/01/26 11:55:10;;;;;;;53.93;24.33;;;;;;;;;;5113411;28;20682;-79
2022/01/26 11:57:42;;;;;;;52.43;25.30;;;;;;;;;;5105496;28;20228;-79
2022/01/26 12:00:14;;;;;;;55.10;24.93;;;;;;;;;;5098503;28;20194;-82
2022/01/26 12:02:50;;;;;;;50.20;24.13;;;;;;;;;;5110150;28;20203;-81
2022/01/26 12:05:21;;;;;;;51.23;22.90;;;;;;;;;;5104213;28;20202;-83
2022/01/26 12:07:48;;;;;;;54.80;24.33;;;;;;;;;;5104274;28;20271;-82
2022/01/26 12:10:24;;;;;;;63.27;31.90;;;;;;;;;;5101979;28;20200;-82
2022/01/26 12:12:59;;;;;;;58.23;30.93;;;;;;;;;;5095422;28;20202;-82
2022/01/26 12:15:28;;;;;;;83.83;44.97;;;;;;;;;;5104156;28;20224;-81
2022/01/26 12:18:12;;;;;;;76.33;41.23;;;;;;;;;;5092974;28;20226;-82
2022/01/26 12:32:13;;;;;;;52.93;24.00;;;;;;;;;;5101411;28;20678;-82
2022/01/26 12:34:47;;;;;;;51.83;24.17;;;;;;;;;;5095035;28;20195;-82
2022/01/26 12:37:20;;;;;;;56.83;24.87;;;;;;;;;;5097832;28;20231;-82
2022/01/26 12:45:21;;;;;;;55.37;24.40;;;;;;;;;;5099500;28;20196;-82
2022/01/26 12:47:49;;;;;;;53.63;23.80;;;;;;;;;;5099270;28;20251;-82
2022/01/26 12:50:18;;;;;;;54.07;25.40;;;;;;;;;;5099852;28;20778;-82
2022/01/26 12:52:46;;;;;;;54.73;24.20;;;;;;;;;;5095872;28;20282;-81
2022/01/26 12:55:20;;;;;;;49.27;24.13;;;;;;;;;;5099001;28;20227;-81
2022/01/26 12:57:47;;;;;;;56.50;24.33;;;;;;;;;;5100163;28;20209;-81
2022/01/26 13:00:15;;;;;;;54.47;23.80;;;;;;;;;;5102169;28;20213;-81
2022/01/26 13:02:42;;;;;;;56.43;24.73;;;;;;;;;;5097561;28;20296;-81
2022/01/26 13:05:11;;;;;;;51.43;24.70;;;;;;;;;;5087573;28;20301;-81
2022/01/26 13:07:39;;;;;;;48.43;23.57;;;;;;;;;;5099274;28;20288;-81
2022/01/26 13:10:14;;;;;;;53.57;25.07;;;;;;;;;;5092981;28;20285;-82
2022/01/26 13:12:41;;;;;;;52.50;25.07;;;;;;;;;;5100755;28;20389;-82
2022/01/26 13:15:16;;;;;;;51.33;24.37;;;;;;;;;;5107031;28;20289;-84
2022/01/26 13:17:48;;;;;;;56.00;27.90;;;;;;;;;;5102536;28;20225;-79
2022/01/26 13:20:30;;;;;;;63.93;34.37;;;;;;;;;;5099774;28;20243;-76
2022/01/26 13:23:15;;;;;;;55.67;28.20;;;;;;;;;;5097745;28;20287;-79
2022/01/26 13:25:54;;;;;;;53.37;24.63;;;;;;;;;;5091937;28;20617;-80
2022/01/26 13:28:33;;;;;;;92.77;52.37;;;;;;;;;;5108979;28;20281;-80
2022/01/26 13:34:34;;;;;;;67.43;36.30;;;;;;;;;;5081971;28;20193;-80
2022/01/26 13:37:12;;;;;;;95.27;53.83;;;;;;;;;;5090175;28;20218;-77
2022/01/26 13:39:59;;;;;;;65.43;34.20;;;;;;;;;;5096442;28;20201;-79
2022/01/26 13:42:59;;;;;;;48.80;25.07;;;;;;;;;;5092615;28;20233;-79
2022/01/26 13:48:34;;;;;;;49.80;24.77;;;;;;;;;;5107176;28;20201;-80
2022/01/26 13:51:09;;;;;;;51.27;23.93;;;;;;;;;;5097242;28;20289;-79
2022/01/26 13:53:47;;;;;;;52.10;25.00;;;;;;;;;;5098022;28;20709;-79
2022/01/26 13:56:20;;;;;;;50.43;25.73;;;;;;;;;;5101131;28;20190;-80
2022/01/26 13:59:02;;;;;;;55.37;29.63;;;;;;;;;;5101410;28;20691;-80
2022/01/26 14:01:29;;;;;;;65.40;36.00;;;;;;;;;;5104897;28;20290;-80
2022/01/26 14:04:02;;;;;;;60.17;30.47;;;;;;;;;;5096815;28;20275;-80
2022/01/26 14:06:29;;;;;;;50.77;25.37;;;;;;;;;;5098190;28;20561;-80
2022/01/26 14:08:56;;;;;;;50.40;24.57;;;;;;;;;;5098985;28;20289;-80
2022/01/26 14:11:25;;;;;;;47.43;24.87;;;;;;;;;;5098477;28;20209;-80
2022/01/26 14:13:55;;;;;;;49.83;25.30;;;;;;;;;;5097931;28;20281;-81
2022/01/26 14:16:24;;;;;;;49.13;23.90;;;;;;;;;;5104874;28;20206;-80
2022/01/26 14:19:06;;;;;;;49.00;24.07;;;;;;;;;;5097937;28;20584;-80
2022/01/26 14:22:06;;;;;;;49.43;23.60;;;;;;;;;;5096988;28;20630;-80
2022/01/26 14:24:49;;;;;;;48.40;25.00;;;;;;;;;;5099363;28;20205;-80
2022/01/26 14:27:19;;;;;;;44.47;23.40;;;;;;;;;;5099882;28;20289;-80
2022/01/26 14:30:01;;;;;;;46.27;24.07;;;;;;;;;;5103570;28;20212;-81
2022/01/26 14:32:58;;;;;;;72.67;41.13;;;;;;;;;;5090423;28;20293;-80
2022/01/26 14:35:44;;;;;;;120.17;73.73;;;;;;;;;;5101084;28;20205;-81
2022/01/26 14:50:55;;;;;;;44.70;24.90;;;;;;;;;;5089870;28;20199;-81
2022/01/26 14:54:59;;;;;;;58.97;35.83;;;;;;;;;;5073235;28;20230;-82
2022/01/26 15:00:37;;;;;;;46.67;24.80;;;;;;;;;;5079273;28;20873;-82
2022/01/26 15:09:11;;;;;;;45.50;24.87;;;;;;;;;;5017123;28;20216;-81
2022/01/26 15:21:27;;;;;;;39.67;22.67;;;;;;;;;;4951790;28;20210;-82
2022/01/26 15:32:15;;;;;;;93.53;47.33;;;;;;;;;;4951695;28;20257;-81
2022/01/26 15:34:42;;;;;;;272.70;136.20;;;;;;;;;;4956580;28;20206;-81
2022/01/26 15:40:06;;;;;;;84.63;44.03;;;;;;;;;;4995265;28;20210;-81
2022/01/26 15:42:44;;;;;;;52.17;29.90;;;;;;;;;;5016616;28;20560;-82
2022/01/26 15:50:47;;;;;;;47.93;26.10;;;;;;;;;;4980465;28;20326;-81
2022/01/26 15:53:25;;;;;;;43.63;24.30;;;;;;;;;;4986602;28;20220;-80
2022/01/26 15:58:51;;;;;;;64.97;40.37;;;;;;;;;;5051485;28;20292;-80
2022/01/26 16:04:34;;;;;;;66.53;38.20;;;;;;;;;;5065498;28;20299;-80
2022/01/26 16:07:12;;;;;;;49.27;29.00;;;;;;;;;;5053956;28;20199;-80
2022/01/26 16:12:43;;;;;;;47.13;24.93;;;;;;;;;;5060677;28;20375;-80
2022/01/26 16:37:50;;;;;;;47.60;28.23;;;;;;;;;;5004615;28;20234;-80
2022/01/26 17:03:09;;;;;;;49.17;27.67;;;;;;;;;;5001431;28;20373;-80
2022/01/26 17:11:37;;;;;;;44.90;24.90;;;;;;;;;;5107292;28;20335;-81
2022/01/26 18:04:02;;;;;;;49.63;30.97;;;;;;;;;;5001138;28;20227;-80
2022/01/26 18:04:42;;;;;;;55.63;29.57;;;;;;;;;;5004518;28;20197;-83
2022/01/26 18:13:01;;;;;;;53.90;31.63;;;;;;;;;;4999456;28;20684;-88
2022/01/26 18:15:49;;;;;;;45.20;26.50;;;;;;;;;;5000743;28;20208;-83
2022/01/26 18:26:46;;;;;;;50.07;27.33;;;;;;;;;;5030767;28;20328;-80
2022/01/26 18:32:25;;;;;;;50.20;25.30;;;;;;;;;;5102590;28;20270;-81
2022/01/26 18:40:46;;;;;;;47.53;26.30;;;;;;;;;;5091399;28;20735;-80
2022/01/26 18:51:28;;;;;;;81.43;41.60;;;;;;;;;;5095435;28;20577;-81
2022/01/26 18:53:57;;;;;;;51.33;28.03;;;;;;;;;;5091471;28;20239;-87
2022/01/26 18:56:25;;;;;;;55.83;32.33;;;;;;;;;;5103193;28;20649;-87
2022/01/26 18:58:52;;;;;;;58.33;32.97;;;;;;;;;;5099952;28;20224;-87
2022/01/26 19:01:19;;;;;;;58.60;32.87;;;;;;;;;;5091588;28;20634;-82
2022/01/26 19:03:46;;;;;;;118.13;70.40;;;;;;;;;;5099890;28;20248;-80
2022/01/26 19:06:13;;;;;;;66.83;42.43;;;;;;;;;;5096865;28;20276;-80
2022/01/26 19:08:41;;;;;;;65.40;38.80;;;;;;;;;;5107118;28;20189;-80
2022/01/26 19:11:11;;;;;;;63.10;39.20;;;;;;;;;;5100931;28;20213;-82
2022/01/26 19:13:41;;;;;;;51.53;29.53;;;;;;;;;;5111111;28;20199;-82
2022/01/26 19:16:17;;;;;;;59.20;34.10;;;;;;;;;;5095845;28;20243;-82
2022/01/26 19:18:56;;;;;;;55.93;31.60;;;;;;;;;;4402045;27;10001278;-81
2022/01/26 19:21:38;;;;;;;86.63;57.43;;;;;;;;;;4773395;27;9999964;-81